Time;durP1;ratioP1;P1;durP2;ratioP2;P2;SDS_P1;SDS_P2;PMS_P1;PMS_P2;Temp;Humidity;BMP_temperature;BMP_pressure;BME280_temperature;BME280_humidity;BME280_pressure;Samples;Min_cycle;Max_cycle;Signal;HPM_P1;HPM_P2
2023/02/12 00:00:50;;;;;;;39.40;21.13;;;;;;;7.81;100.00;102626.53;5185983;28;20048;-77
2023/02/12 00:03:20;;;;;;;38.88;20.05;;;;;;;7.81;100.00;102634.34;5186946;28;20101;-76
2023/02/12 00:05:51;;;;;;;35.65;20.73;;;;;;;7.72;100.00;102633.38;5182406;28;20497;-76
2023/02/12 00:08:21;;;;;;;36.45;20.98;;;;;;;7.73;100.00;102629.91;5188870;28;20025;-77
2023/02/12 00:10:51;;;;;;;35.75;20.83;;;;;;;7.69;100.00;102639.41;5192759;28;20033;-77
2023/02/12 00:13:22;;;;;;;34.80;19.73;;;;;;;7.83;100.00;102640.41;5185806;28;20413;-76
2023/02/12 00:15:53;;;;;;;33.33;19.95;;;;;;;7.72;100.00;102649.00;5188677;28;20044;-75
2023/02/12 00:18:23;;;;;;;30.52;19.75;;;;;;;7.83;100.00;102643.03;5177730;28;20653;-75
2023/02/12 00:20:53;;;;;;;30.63;18.80;;;;;;;7.74;100.00;102642.94;5171695;28;20029;-75
2023/02/12 00:23:23;;;;;;;31.23;18.27;;;;;;;7.84;100.00;102646.50;5186304;28;20227;-78
2023/02/12 00:25:54;;;;;;;28.70;18.13;;;;;;;7.76;100.00;102655.97;5190197;28;20313;-77
2023/02/12 00:28:24;;;;;;;31.52;19.15;;;;;;;7.68;100.00;102655.03;5190257;28;20032;-77
2023/02/12 00:30:55;;;;;;;36.35;19.38;;;;;;;7.74;100.00;102655.94;5189361;28;20037;-77
2023/02/12 00:33:25;;;;;;;29.67;18.67;;;;;;;7.80;100.00;102657.72;5186905;28;20078;-78
2023/02/12 00:35:56;;;;;;;30.85;18.45;;;;;;;7.76;100.00;102645.56;5184152;28;20021;-78
2023/02/12 00:38:26;;;;;;;30.73;18.67;;;;;;;7.70;100.00;102654.19;5186470;28;20108;-77
2023/02/12 00:40:56;;;;;;;30.10;18.38;;;;;;;7.81;100.00;102651.66;5187099;28;20025;-76
2023/02/12 00:43:27;;;;;;;31.88;19.17;;;;;;;7.73;100.00;102662.00;5187252;28;20025;-76
2023/02/12 00:45:57;;;;;;;31.33;19.02;;;;;;;7.72;100.00;102660.25;5165498;28;20038;-77
2023/02/12 00:48:28;;;;;;;33.08;19.20;;;;;;;7.77;100.00;102653.41;5182725;28;20513;-76
2023/02/12 00:50:58;;;;;;;32.45;20.58;;;;;;;7.85;100.00;102656.91;5187696;28;20029;-76
2023/02/12 00:53:29;;;;;;;27.58;18.75;;;;;;;7.83;100.00;102665.56;5187369;28;20104;-77
2023/02/12 00:56:00;;;;;;;31.50;18.83;;;;;;;7.76;100.00;102669.88;5187594;28;20044;-75
2023/02/12 00:58:30;;;;;;;30.15;18.85;;;;;;;7.79;100.00;102666.41;5191902;28;20109;-77
2023/02/12 01:01:01;;;;;;;33.97;20.30;;;;;;;7.82;100.00;102671.63;5181846;28;20033;-78
2023/02/12 01:03:31;;;;;;;32.47;19.40;;;;;;;7.77;100.00;102671.63;5179982;28;20017;-73
2023/02/12 01:06:01;;;;;;;39.70;20.92;;;;;;;7.76;100.00;102680.28;5181097;28;20022;-77
2023/02/12 01:08:32;;;;;;;36.20;19.88;;;;;;;7.82;100.00;102688.13;5183894;28;20037;-77
2023/02/12 01:11:03;;;;;;;37.97;20.65;;;;;;;7.85;100.00;102674.28;5182941;28;20113;-76
2023/02/12 01:13:34;;;;;;;36.10;20.23;;;;;;;7.83;100.00;102679.47;5184494;28;20030;-78
2023/02/12 01:16:09;;;;;;;37.47;20.08;;;;;;;7.80;100.00;102684.66;5183575;28;20394;-77
2023/02/12 01:18:39;;;;;;;34.22;19.52;;;;;;;7.76;100.00;102682.88;5182019;28;20402;-76
2023/02/12 01:21:22;;;;;;;35.60;18.92;;;;;;;7.78;100.00;102681.16;5170719;28;20029;-76
2023/02/12 01:23:53;;;;;;;35.55;19.40;;;;;;;7.78;100.00;102680.28;5179353;28;20080;-77
2023/02/12 01:26:24;;;;;;;34.30;18.42;;;;;;;7.77;100.00;102683.75;5177921;28;20030;-76
2023/02/12 01:28:57;;;;;;;32.47;19.75;;;;;;;7.82;100.00;102679.44;5181360;28;20049;-76
2023/02/12 01:31:34;;;;;;;33.72;19.17;;;;;;;7.78;100.00;102675.97;5176682;28;20037;-78
2023/02/12 01:34:06;;;;;;;37.20;19.65;;;;;;;7.76;100.00;102676.78;5177385;28;20511;-78
2023/02/12 01:36:36;;;;;;;33.55;19.55;;;;;;;7.78;100.00;102677.66;5183637;28;20036;-78
2023/02/12 01:39:07;;;;;;;33.97;19.92;;;;;;;7.66;100.00;102675.84;5186684;28;20034;-77
2023/02/12 01:41:42;;;;;;;31.60;19.00;;;;;;;7.70;100.00;102671.53;5187355;28;20207;-76
2023/02/12 01:44:24;;;;;;;32.72;19.83;;;;;;;7.72;100.00;102675.03;5187699;28;20494;-76
2023/02/12 01:47:18;;;;;;;35.53;20.67;;;;;;;7.69;100.00;102668.03;5186356;28;20487;-77
2023/02/12 01:49:48;;;;;;;30.60;18.75;;;;;;;7.67;100.00;102682.78;5173552;28;20406;-76
2023/02/12 01:52:29;;;;;;;36.60;20.10;;;;;;;7.64;100.00;102669.75;5183398;28;20026;-78
2023/02/12 01:55:04;;;;;;;41.75;20.25;;;;;;;7.57;100.00;102672.28;5184984;28;20042;-75
2023/02/12 01:57:38;;;;;;;40.30;19.92;;;;;;;7.69;100.00;102670.66;5177519;28;20633;-76
2023/02/12 02:00:14;;;;;;;36.93;19.63;;;;;;;7.64;100.00;102667.13;5187150;28;20479;-77
2023/02/12 02:02:48;;;;;;;35.33;19.58;;;;;;;7.68;100.00;102668.06;5182279;28;20056;-76
2023/02/12 02:05:41;;;;;;;34.72;19.55;;;;;;;7.64;100.00;102667.13;5171888;28;20053;-78
2023/02/12 02:08:12;;;;;;;34.45;20.33;;;;;;;7.63;100.00;102665.41;5184870;28;20025;-77
2023/02/12 02:10:42;;;;;;;36.85;20.13;;;;;;;7.64;100.00;102672.34;5188787;28;20040;-76
2023/02/12 02:16:13;;;;;;;31.83;18.48;;;;;;;7.71;100.00;102671.53;5181138;28;20028;-76
2023/02/12 02:18:57;;;;;;;33.40;19.15;;;;;;;7.65;100.00;102674.09;5183367;28;20064;-76
2023/02/12 02:21:45;;;;;;;30.70;18.70;;;;;;;7.58;100.00;102672.28;5183442;28;20026;-76
2023/02/12 02:24:41;;;;;;;30.90;17.70;;;;;;;7.69;100.00;102675.84;5181368;28;20041;-77
2023/02/12 02:27:19;;;;;;;34.80;18.95;;;;;;;7.64;100.00;102674.94;5188803;28;20034;-76
2023/02/12 02:30:04;;;;;;;38.92;19.08;;;;;;;7.64;100.00;102663.66;5192146;28;20032;-76
2023/02/12 02:32:48;;;;;;;40.05;19.08;;;;;;;7.54;100.00;102670.50;5185850;28;20030;-77
2023/02/12 02:35:39;;;;;;;36.58;19.50;;;;;;;7.54;100.00;102665.28;5182522;28;20068;-77
2023/02/12 02:38:18;;;;;;;39.35;19.95;;;;;;;7.63;100.00;102674.91;5184545;28;20033;-78
2023/02/12 02:40:57;;;;;;;35.15;18.92;;;;;;;7.57;100.00;102669.66;5191402;28;20041;-77
2023/02/12 02:43:37;;;;;;;35.83;20.02;;;;;;;7.66;100.00;102669.78;5190193;28;20026;-78
2023/02/12 02:46:33;;;;;;;36.53;18.95;;;;;;;7.63;100.00;102674.91;5183501;28;20476;-76
2023/02/12 02:49:07;;;;;;;30.58;17.48;;;;;;;7.64;100.00;102677.56;5187867;28;20487;-76
2023/02/12 02:51:44;;;;;;;29.35;18.17;;;;;;;7.53;100.00;102684.38;5186483;28;20026;-78
2023/02/12 02:54:20;;;;;;;33.67;17.40;;;;;;;7.60;100.00;102680.09;5176623;28;20018;-76
2023/02/12 02:56:59;;;;;;;28.85;18.27;;;;;;;7.57;100.00;102680.97;5184629;28;20052;-77
2023/02/12 02:59:39;;;;;;;33.80;16.70;;;;;;;7.56;100.00;102687.00;5188378;28;20030;-77
2023/02/12 03:02:20;;;;;;;28.40;16.08;;;;;;;7.58;100.00;102690.50;5183978;28;20207;-76
2023/02/12 03:04:57;;;;;;;29.10;16.35;;;;;;;7.64;100.00;102681.88;5188672;28;20523;-76
2023/02/12 03:07:37;;;;;;;30.70;16.98;;;;;;;7.68;100.00;102683.66;5191447;28;20086;-76
2023/02/12 03:10:17;;;;;;;30.48;16.50;;;;;;;7.74;100.00;102692.38;5186593;28;20054;-77
2023/02/12 03:12:55;;;;;;;27.13;16.23;;;;;;;7.71;100.00;102691.50;5180734;28;20026;-76
2023/02/12 03:15:44;;;;;;;32.85;17.52;;;;;;;7.64;100.00;102695.78;5190638;28;20052;-76
2023/02/12 03:18:20;;;;;;;35.60;17.50;;;;;;;7.65;100.00;102700.13;5186414;28;20479;-77
2023/02/12 03:20:58;;;;;;;34.45;16.55;;;;;;;7.67;100.00;102702.75;5186352;28;20107;-76
2023/02/12 03:23:36;;;;;;;37.17;18.20;;;;;;;7.66;100.00;102701.84;5186117;28;20029;-76
2023/02/12 03:26:20;;;;;;;36.10;17.40;;;;;;;7.68;100.00;102700.13;5186604;28;20030;-76
2023/02/12 03:28:50;;;;;;;31.02;17.23;;;;;;;7.64;100.00;102707.88;5189833;28;20497;-76
2023/02/12 03:31:36;;;;;;;31.73;17.73;;;;;;;7.66;100.00;102703.59;5191184;28;20029;-77
2023/02/12 03:34:10;;;;;;;;;;;;;;;7.59;100.00;102700.06;5187368;28;20037;-76
2023/02/12 03:36:44;;;;;;;41.00;18.13;;;;;;;7.71;100.00;102704.50;5187868;28;19913;-76
2023/02/12 03:39:44;;;;;;;35.30;18.00;;;;;;;7.61;100.00;102703.53;5190525;28;20025;-77
2023/02/12 03:42:36;;;;;;;47.70;18.75;;;;;;;7.59;100.00;102723.47;5187444;28;20034;-76
2023/02/12 03:45:31;;;;;;;38.13;18.88;;;;;;;7.58;100.00;102713.94;5183748;28;20437;-78
2023/02/12 03:48:10;;;;;;;43.97;18.73;;;;;;;7.62;100.00;102712.22;5187136;28;20037;-77
2023/02/12 03:50:57;;;;;;;44.80;19.38;;;;;;;7.63;100.00;102716.56;5181030;28;20025;-78
2023/02/12 03:53:30;;;;;;;44.72;18.92;;;;;;;7.63;100.00;102712.25;5185047;28;20026;-78
2023/02/12 03:56:11;;;;;;;39.10;19.48;;;;;;;7.57;100.00;102720.00;5186507;28;20904;-76
2023/02/12 03:58:43;;;;;;;39.05;19.15;;;;;;;7.56;100.00;102723.41;5186603;28;20030;-76
2023/02/12 04:01:13;;;;;;;40.80;19.42;;;;;;;7.59;100.00;102726.09;5173107;28;20033;-77
2023/02/12 04:03:44;;;;;;;39.33;18.70;;;;;;;7.62;100.00;102722.63;5188355;28;20558;-77
2023/02/12 04:06:24;;;;;;;35.85;18.38;;;;;;;7.61;100.00;102729.56;5181890;28;20030;-78
2023/02/12 04:09:00;;;;;;;42.08;18.42;;;;;;;7.61;100.00;102729.56;5184528;28;20037;-76
2023/02/12 04:11:30;;;;;;;40.75;18.83;;;;;;;7.60;100.00;102727.81;5193005;28;20363;-77
2023/02/12 04:14:14;;;;;;;34.75;18.88;;;;;;;7.53;100.00;102733.81;5188660;28;20038;-78
2023/02/12 04:16:51;;;;;;;35.30;17.58;;;;;;;7.64;100.00;102734.81;5175083;28;20503;-74
2023/02/12 04:19:52;;;;;;;31.88;17.73;;;;;;;7.62;100.00;102738.22;5181894;28;20427;-76
2023/02/12 04:22:36;;;;;;;35.70;18.40;;;;;;;7.59;100.00;102741.69;5181195;28;20022;-77
2023/02/12 04:25:31;;;;;;;32.78;17.13;;;;;;;7.59;100.00;102746.91;5182998;28;20034;-77
2023/02/12 04:28:16;;;;;;;40.38;17.38;;;;;;;7.58;100.00;102744.25;5188304;28;20526;-77
2023/02/12 04:30:58;;;;;;;30.50;16.57;;;;;;;7.62;100.00;102749.53;5187566;28;20037;-78
2023/02/12 04:33:38;;;;;;;32.22;16.58;;;;;;;7.63;100.00;102753.88;5191597;28;20045;-76
2023/02/12 04:36:15;;;;;;;27.80;17.02;;;;;;;7.58;100.00;102750.34;5185820;28;20033;-77
2023/02/12 04:38:52;;;;;;;26.70;16.00;;;;;;;7.59;100.00;102753.81;5189335;28;20032;-77
2023/02/12 04:41:24;;;;;;;33.13;17.20;;;;;;;7.58;100.00;102760.75;5190405;28;20033;-76
2023/02/12 04:43:55;;;;;;;29.05;16.35;;;;;;;7.58;100.00;102757.28;5189937;28;20049;-77
2023/02/12 04:46:25;;;;;;;32.75;17.48;;;;;;;7.56;100.00;102757.25;5183653;28;20026;-76
2023/02/12 04:48:57;;;;;;;33.33;17.52;;;;;;;7.54;100.00;102761.56;5193117;28;20186;-78
2023/02/12 04:51:27;;;;;;;33.60;16.13;;;;;;;7.62;100.00;102756.44;5191384;28;20021;-76
2023/02/12 04:53:58;;;;;;;31.17;16.30;;;;;;;7.60;100.00;102764.25;5182838;28;20395;-76
2023/02/12 04:56:28;;;;;;;29.40;15.98;;;;;;;7.60;100.00;102764.25;5178736;28;20036;-77
2023/02/12 04:58:58;;;;;;;31.48;16.58;;;;;;;7.51;100.00;102760.69;5191034;28;20030;-76
2023/02/12 05:01:29;;;;;;;30.30;16.38;;;;;;;7.49;100.00;102765.84;5185921;28;20061;-76
2023/02/12 05:03:59;;;;;;;28.35;15.80;;;;;;;7.54;100.00;102763.31;5184546;28;20180;-76
2023/02/12 05:06:31;;;;;;;32.28;16.33;;;;;;;7.55;100.00;102768.50;5183116;28;20064;-78
2023/02/12 05:09:01;;;;;;;35.78;17.95;;;;;;;7.62;100.00;102759.94;5190218;28;20056;-76
2023/02/12 05:11:32;;;;;;;31.75;16.35;;;;;;;7.55;100.00;102763.31;5188136;28;20222;-77
2023/02/12 05:14:02;;;;;;;29.77;16.23;;;;;;;7.57;100.00;102753.81;5188192;28;20038;-78
2023/02/12 05:16:33;;;;;;;30.45;16.13;;;;;;;7.47;100.00;102764.97;5187387;28;20467;-76
2023/02/12 05:19:03;;;;;;;29.00;16.75;;;;;;;7.47;100.00;102771.88;5180500;28;20040;-78
2023/02/12 05:21:34;;;;;;;32.50;17.33;;;;;;;7.53;100.00;102771.97;5191268;28;20032;-76
2023/02/12 05:24:05;;;;;;;32.00;17.20;;;;;;;7.53;100.00;102778.03;5177286;28;20022;-77
2023/02/12 05:26:35;;;;;;;29.90;16.02;;;;;;;7.56;100.00;102777.22;5187588;28;20564;-77
2023/02/12 05:29:06;;;;;;;35.00;17.55;;;;;;;7.51;100.00;102779.75;5189517;28;20029;-77
2023/02/12 05:31:36;;;;;;;32.63;17.52;;;;;;;7.51;100.00;102782.34;5187381;28;20075;-78
2023/02/12 05:34:09;;;;;;;35.38;17.05;;;;;;;7.55;100.00;102780.66;5187995;28;20034;-77
2023/02/12 05:36:40;;;;;;;34.55;17.73;;;;;;;7.54;100.00;102782.38;5189051;28;20029;-78
2023/02/12 05:39:10;;;;;;;33.85;17.38;;;;;;;7.48;100.00;102787.53;5186851;28;20029;-76
2023/02/12 05:41:41;;;;;;;36.00;17.92;;;;;;;7.44;100.00;102790.06;5186643;28;20026;-77
2023/02/12 05:44:13;;;;;;;36.35;18.25;;;;;;;7.57;100.00;102791.97;5182359;28;20033;-76
2023/02/12 05:46:44;;;;;;;37.58;18.05;;;;;;;7.46;100.00;102789.22;5184758;28;20037;-76
2023/02/12 05:49:14;;;;;;;35.75;18.73;;;;;;;7.45;100.00;102797.91;5191033;28;20022;-77
2023/02/12 05:51:44;;;;;;;37.47;18.25;;;;;;;7.56;100.00;102798.88;5188929;28;20034;-77
2023/02/12 05:54:15;;;;;;;35.30;18.00;;;;;;;7.50;100.00;102796.22;5178544;28;20387;-78
2023/02/12 05:56:46;;;;;;;37.30;18.27;;;;;;;7.56;100.00;102804.09;5187936;28;20071;-77
2023/02/12 05:59:20;;;;;;;37.78;19.08;;;;;;;7.45;100.00;102803.09;5187394;28;20515;-77
2023/02/12 06:01:51;;;;;;;38.38;18.27;;;;;;;7.56;100.00;102804.09;5184985;28;20037;-77
2023/02/12 06:04:24;;;;;;;33.20;17.58;;;;;;;7.53;100.00;102804.06;5187253;28;20072;-78
2023/02/12 06:06:55;;;;;;;36.42;17.50;;;;;;;7.57;100.00;102802.38;5188336;28;20049;-76
2023/02/12 06:09:25;;;;;;;34.05;18.15;;;;;;;7.57;100.00;102795.44;5185209;28;20026;-78
2023/02/12 06:11:56;;;;;;;36.05;17.35;;;;;;;7.58;100.00;102801.50;5184468;28;20027;-77
2023/02/12 06:14:26;;;;;;;37.45;18.08;;;;;;;7.50;100.00;102806.63;5182305;28;20499;-77
2023/02/12 06:16:56;;;;;;;31.58;17.52;;;;;;;7.45;100.00;102810.91;5175988;28;20037;-76
2023/02/12 06:19:26;;;;;;;40.42;18.52;;;;;;;7.53;100.00;102811.84;5160828;28;20430;-76
2023/02/12 06:21:57;;;;;;;37.70;18.10;;;;;;;7.53;100.00;102808.41;5188000;28;20021;-77
2023/02/12 06:24:27;;;;;;;35.35;18.92;;;;;;;7.51;100.00;102810.97;5181395;28;20057;-77
2023/02/12 06:26:57;;;;;;;39.53;18.75;;;;;;;7.41;100.00;102809.13;5186002;28;20034;-76
2023/02/12 06:29:28;;;;;;;36.13;18.05;;;;;;;7.50;100.00;102813.56;5175702;28;20472;-77
2023/02/12 06:31:58;;;;;;;39.67;19.00;;;;;;;7.45;100.00;102820.41;5192153;28;20040;-77
2023/02/12 06:34:28;;;;;;;35.53;18.77;;;;;;;7.45;100.00;102810.00;5190341;28;20095;-77
2023/02/12 06:36:59;;;;;;;37.40;18.98;;;;;;;7.49;100.00;102817.88;5189868;28;20037;-76
2023/02/12 06:39:29;;;;;;;38.45;18.83;;;;;;;7.42;100.00;102817.78;5192304;28;20087;-77
2023/02/12 06:42:00;;;;;;;37.17;18.88;;;;;;;7.50;100.00;102821.38;5188257;28;20033;-77
2023/02/12 06:44:30;;;;;;;44.65;19.77;;;;;;;7.42;100.00;102826.47;5188000;28;20032;-77
2023/02/12 06:47:00;;;;;;;45.38;19.73;;;;;;;7.42;100.00;102826.47;5186798;28;20403;-77
2023/02/12 06:49:31;;;;;;;39.60;19.25;;;;;;;7.35;100.00;102826.38;5189434;28;20687;-77
2023/02/12 06:52:01;;;;;;;39.28;18.38;;;;;;;7.29;100.00;102834.97;5193342;28;20128;-76
2023/02/12 06:54:32;;;;;;;41.55;19.05;;;;;;;7.36;100.00;102839.38;5186287;28;20026;-77
2023/02/12 06:57:02;;;;;;;37.90;20.25;;;;;;;7.30;100.00;102847.09;5187539;28;20037;-77
2023/02/12 06:59:32;;;;;;;39.35;19.65;;;;;;;7.44;100.00;102850.78;5187461;28;20029;-76
2023/02/12 07:02:03;;;;;;;38.40;19.27;;;;;;;7.58;100.00;102841.44;5185382;28;20048;-78
2023/02/12 07:04:33;;;;;;;40.17;19.52;;;;;;;7.38;100.00;102845.47;5188170;28;20037;-77
2023/02/12 07:07:04;;;;;;;37.63;19.58;;;;;;;7.43;100.00;102843.84;5187019;28;20045;-77
2023/02/12 07:09:34;;;;;;;40.80;20.13;;;;;;;7.56;100.00;102840.50;5188208;28;20402;-76
2023/02/12 07:12:05;;;;;;;39.70;21.95;;;;;;;7.56;100.00;102845.72;5192288;28;20025;-76
2023/02/12 07:14:35;;;;;;;41.38;20.83;;;;;;;7.50;100.00;102844.78;5130053;28;1109088;-76
2023/02/12 07:17:07;;;;;;;43.08;21.65;;;;;;;7.43;100.00;102850.75;5188178;28;20034;-77
2023/02/12 07:19:37;;;;;;;44.13;22.80;;;;;;;7.51;100.00;102852.59;5185958;28;20024;-76
2023/02/12 07:22:08;;;;;;;45.95;22.40;;;;;;;7.46;100.00;102854.28;5192885;28;20029;-78
2023/02/12 07:24:38;;;;;;;41.75;21.75;;;;;;;7.53;100.00;102856.09;5181730;28;20071;-76
2023/02/12 07:27:08;;;;;;;43.20;22.90;;;;;;;7.44;100.00;102860.28;5186923;28;20484;-77
2023/02/12 07:29:38;;;;;;;38.92;20.67;;;;;;;7.43;100.00;102853.34;5188003;28;20038;-76
2023/02/12 07:32:09;;;;;;;44.97;22.70;;;;;;;7.57;100.00;102857.91;5186310;28;20430;-78
2023/02/12 07:34:39;;;;;;;58.42;23.23;;;;;;;7.36;100.00;102860.19;5178081;28;20438;-77
2023/02/12 07:37:09;;;;;;;43.42;22.20;;;;;;;7.47;100.00;102869.03;5186303;28;20033;-74
2023/02/12 07:39:40;;;;;;;47.25;21.15;;;;;;;7.44;100.00;102869.00;5189355;28;20506;-75
2023/02/12 07:42:13;;;;;;;43.60;20.60;;;;;;;7.35;100.00;102866.25;5199408;28;20025;-76
2023/02/12 07:44:44;;;;;;;42.20;21.98;;;;;;;7.50;100.00;102873.41;5190503;28;20065;-78
2023/02/12 07:47:15;;;;;;;43.58;21.48;;;;;;;7.51;100.00;102870.81;5186438;28;20061;-77
2023/02/12 07:49:45;;;;;;;40.92;22.33;;;;;;;7.61;100.00;102884.81;5175352;28;20086;-77
2023/02/12 07:52:15;;;;;;;41.47;21.02;;;;;;;7.54;100.00;102889.06;5186907;28;20411;-76
2023/02/12 07:54:46;;;;;;;52.38;22.40;;;;;;;7.50;100.00;102881.22;5180064;28;20479;-74
2023/02/12 07:57:16;;;;;;;54.10;20.90;;;;;;;7.43;100.00;102884.56;5171829;28;20073;-78
2023/02/12 07:59:47;;;;;;;41.95;20.40;;;;;;;7.46;100.00;102887.19;5179290;28;20065;-79
2023/02/12 08:02:17;;;;;;;46.97;20.92;;;;;;;7.40;100.00;102890.63;5178841;28;20129;-77
2023/02/12 08:04:47;;;;;;;44.60;21.17;;;;;;;7.48;100.00;102893.31;5182505;28;20033;-78
2023/02/12 08:07:17;;;;;;;43.88;20.60;;;;;;;7.51;100.00;102894.22;5172623;28;20400;-77
2023/02/12 08:09:48;;;;;;;42.13;20.42;;;;;;;7.42;100.00;102899.31;5178971;28;20057;-77
2023/02/12 08:12:18;;;;;;;41.75;21.85;;;;;;;7.51;100.00;102890.78;5185200;28;20220;-76
2023/02/12 08:14:48;;;;;;;41.42;20.02;;;;;;;7.54;100.00;102898.59;5183264;28;20388;-75
2023/02/12 08:17:19;;;;;;;45.03;20.58;;;;;;;7.54;100.00;102888.19;5184563;28;20744;-77
2023/02/12 08:19:49;;;;;;;46.00;21.88;;;;;;;7.62;100.00;102895.25;5173749;28;20037;-77
2023/02/12 08:22:19;;;;;;;39.60;20.55;;;;;;;7.72;100.00;102897.09;5179602;28;20121;-78
2023/02/12 08:24:49;;;;;;;47.30;21.85;;;;;;;7.58;100.00;102893.47;5181357;28;20030;-78
2023/02/12 08:27:20;;;;;;;39.85;20.88;;;;;;;7.62;100.00;102890.06;5182269;28;20487;-78
2023/02/12 08:29:50;;;;;;;46.30;21.52;;;;;;;7.69;100.00;102901.41;5182318;28;20091;-76
2023/02/12 08:32:20;;;;;;;47.88;22.83;;;;;;;7.69;100.00;102894.47;5181299;28;20049;-77
2023/02/12 08:34:51;;;;;;;48.50;21.20;;;;;;;7.78;100.00;102889.41;5179891;28;20596;-76
2023/02/12 08:37:21;;;;;;;47.55;20.98;;;;;;;7.90;100.00;102899.94;5180494;28;20038;-78
2023/02/12 08:39:51;;;;;;;45.88;20.77;;;;;;;7.78;100.00;102905.03;5178610;28;20053;-75
2023/02/12 08:42:24;;;;;;;50.60;21.55;;;;;;;7.77;100.00;102903.28;5174030;28;20075;-78
2023/02/12 08:44:54;;;;;;;43.83;20.05;;;;;;;7.89;100.00;102906.00;5185027;28;20033;-78
2023/02/12 08:47:25;;;;;;;45.83;20.42;;;;;;;7.75;100.00;102910.19;5184525;28;20153;-78
2023/02/12 08:49:55;;;;;;;46.65;19.90;;;;;;;7.93;100.00;102907.81;5187893;28;20037;-77
2023/02/12 08:52:25;;;;;;;38.15;18.73;;;;;;;7.89;100.00;102913.81;5189128;28;20036;-78
2023/02/12 08:54:56;;;;;;;44.78;20.60;;;;;;;7.93;100.00;102915.63;5187019;28;20077;-78
2023/02/12 08:57:26;;;;;;;40.03;18.70;;;;;;;7.83;100.00;102918.97;5183553;28;20044;-77
2023/02/12 08:59:56;;;;;;;37.78;18.88;;;;;;;7.98;100.00;102921.75;5191658;28;20380;-78
2023/02/12 09:02:26;;;;;;;35.10;17.75;;;;;;;8.08;100.00;102920.13;5186281;28;20030;-77
2023/02/12 09:04:57;;;;;;;37.10;17.77;;;;;;;8.05;100.00;102926.19;5179045;28;20095;-79
2023/02/12 09:07:27;;;;;;;35.25;16.75;;;;;;;7.94;100.00;102933.00;5182743;28;20492;-79
2023/02/12 09:09:57;;;;;;;33.30;16.38;;;;;;;8.19;100.00;102929.00;5178601;28;20122;-78
2023/02/12 09:12:27;;;;;;;32.95;16.48;;;;;;;8.13;100.00;102934.97;5193345;28;20037;-77
2023/02/12 09:14:58;;;;;;;42.58;21.42;;;;;;;8.20;100.00;102944.63;5185963;28;20041;-78
2023/02/12 09:17:29;;;;;;;30.88;16.17;;;;;;;8.21;100.00;102937.72;5183592;28;20296;-77
2023/02/12 09:20:01;;;;;;;35.42;18.98;;;;;;;8.08;100.00;102940.97;5174394;28;20045;-75
2023/02/12 09:22:31;;;;;;;28.05;14.18;;;;;;;8.10;100.00;102940.16;5171489;28;20257;-77
2023/02/12 09:25:01;;;;;;;25.15;13.15;;;;;;;8.11;100.00;102952.31;5183451;28;20543;-78
2023/02/12 09:27:31;;;;;;;26.90;13.52;;;;;;;8.32;100.00;102950.00;5172198;28;20029;-76
2023/02/12 09:30:02;;;;;;;24.83;13.05;;;;;;;8.22;100.00;102944.66;5180392;28;20038;-77
2023/02/12 09:32:32;;;;;;;22.83;12.95;;;;;;;8.32;100.00;102950.00;5180782;28;20036;-77
2023/02/12 09:35:03;;;;;;;25.27;14.05;;;;;;;8.41;100.00;102950.09;5179098;28;20271;-79
2023/02/12 09:37:33;;;;;;;23.10;12.55;;;;;;;8.43;100.00;102951.00;5188545;28;20117;-79
2023/02/12 09:40:05;;;;;;;25.83;13.90;;;;;;;8.46;100.00;102960.56;5182393;28;20136;-78
2023/02/12 09:43:12;;;;;;;23.23;13.73;;;;;;;8.25;100.00;102955.97;5180314;28;20059;-77
2023/02/12 09:46:24;;;;;;;25.33;13.40;;;;;;;8.35;100.00;102955.22;5185686;28;20116;-78
2023/02/12 09:49:10;;;;;;;22.02;12.20;;;;;;;8.26;100.00;102960.34;5182801;28;20030;-79
2023/02/12 09:51:43;;;;;;;31.45;15.93;;;;;;;8.24;100.00;102964.66;5181682;28;20403;-78
2023/02/12 09:54:17;;;;;;;25.05;12.63;;;;;;;8.21;100.00;102967.22;5189973;28;20026;-78
2023/02/12 09:56:57;;;;;;;25.00;13.55;;;;;;;8.28;100.00;102969.06;5189343;28;20563;-77
2023/02/12 09:59:44;;;;;;;22.20;12.40;;;;;;;8.22;100.00;102971.56;5186860;28;20028;-76
2023/02/12 10:02:17;;;;;;;23.58;11.50;;;;;;;8.40;100.00;102971.78;5188466;28;20026;-77
2023/02/12 10:04:48;;;;;;;21.13;10.82;;;;;;;8.41;100.00;102963.09;5183294;28;20029;-78
2023/02/12 10:07:37;;;;;;;18.15;10.05;;;;;;;8.52;100.00;102961.50;5192896;28;20099;-77
2023/02/12 10:10:35;;;;;;;22.77;11.10;;;;;;;8.63;100.00;102965.13;5176526;28;20034;-77
2023/02/12 10:13:26;;;;;;;19.50;10.48;;;;;;;8.66;100.00;102959.94;5190174;28;20056;-77
2023/02/12 10:16:05;;;;;;;18.85;9.88;;;;;;;8.83;100.00;102966.19;5191684;28;20064;-77
2023/02/12 10:19:00;;;;;;;24.90;13.35;;;;;;;8.92;100.00;102960.19;5187994;28;20030;-78
2023/02/12 10:21:53;;;;;;;23.40;13.32;;;;;;;8.86;100.00;102974.03;5184181;28;20587;-78
2023/02/12 10:24:39;;;;;;;20.77;11.45;;;;;;;8.80;100.00;102971.38;5192048;28;20036;-77
2023/02/12 10:27:23;;;;;;;;;;;;;;;8.81;100.00;102967.00;5185487;28;20115;-77
2023/02/12 10:29:57;;;;;;;19.58;12.07;;;;;;;8.77;100.00;102976.56;5192115;28;19940;-78
2023/02/12 10:32:34;;;;;;;20.63;12.02;;;;;;;8.84;100.00;102972.25;5184389;28;20678;-77
2023/02/12 10:35:13;;;;;;;18.42;11.85;;;;;;;8.77;100.00;102968.75;5184087;28;20128;-77
2023/02/12 10:37:51;;;;;;;17.80;10.77;;;;;;;8.78;100.00;102980.03;5182499;28;20116;-78
2023/02/12 10:40:28;;;;;;;16.80;10.85;;;;;;;8.76;100.00;102981.75;5181526;28;20069;-78
2023/02/12 10:43:01;;;;;;;16.80;9.68;;;;;;;8.81;100.00;102974.84;5189303;28;20037;-78
2023/02/12 10:45:34;;;;;;;17.33;10.90;;;;;;;8.81;100.00;102973.13;5189552;28;20088;-78
2023/02/12 10:48:14;;;;;;;15.85;10.05;;;;;;;8.80;100.00;102971.38;5177906;28;21575;-78
2023/02/12 10:51:06;;;;;;;18.30;10.38;;;;;;;8.69;100.00;102979.94;5178758;28;20025;-76
2023/02/12 10:53:42;;;;;;;17.38;10.77;;;;;;;8.43;100.00;102977.06;5180453;28;20407;-78
2023/02/12 10:56:17;;;;;;;23.15;12.65;;;;;;;8.63;100.00;102980.75;5181547;28;20100;-78
2023/02/12 10:58:51;;;;;;;22.45;12.70;;;;;;;8.60;100.00;102983.34;5175006;28;20052;-76
2023/02/12 11:01:28;;;;;;;19.02;11.80;;;;;;;8.61;100.00;102984.19;5182717;28;20483;-79
2023/02/12 11:04:18;;;;;;;21.15;12.13;;;;;;;8.67;100.00;102982.53;5186386;28;20045;-78
2023/02/12 11:07:02;;;;;;;26.15;13.32;;;;;;;8.50;100.00;102978.88;5195548;28;20088;-79
2023/02/12 11:09:39;;;;;;;21.40;12.25;;;;;;;8.40;100.00;102976.13;5187409;28;20029;-79
2023/02/12 11:12:21;;;;;;;20.65;11.77;;;;;;;8.42;100.00;102980.50;5179815;28;20040;-78
2023/02/12 11:14:54;;;;;;;20.48;11.55;;;;;;;8.54;100.00;102978.03;5179906;28;20038;-78
2023/02/12 11:17:32;;;;;;;21.45;12.55;;;;;;;8.40;100.00;102971.78;5185388;28;20479;-78
2023/02/12 11:20:08;;;;;;;24.08;12.82;;;;;;;8.38;100.00;102968.28;5189792;28;20088;-78
2023/02/12 11:22:49;;;;;;;22.83;13.75;;;;;;;8.47;100.00;102972.72;5185676;28;20641;-77
2023/02/12 11:25:20;;;;;;;20.33;12.02;;;;;;;8.61;100.00;102969.44;5176748;28;20032;-76
2023/02/12 11:27:59;;;;;;;23.70;13.07;;;;;;;8.65;100.00;102973.81;5175804;28;20100;-78
2023/02/12 11:30:30;;;;;;;21.65;11.32;;;;;;;8.58;100.00;102966.78;5178844;28;20121;-77
2023/02/12 11:33:31;;;;;;;23.83;12.57;;;;;;;8.57;100.00;102962.41;5190493;28;20050;-78
2023/02/12 11:36:03;;;;;;;24.17;13.05;;;;;;;8.74;100.00;102958.25;5182488;28;20034;-78
2023/02/12 11:38:46;;;;;;;24.02;13.85;;;;;;;8.85;100.00;102947.94;5173414;28;20061;-77
2023/02/12 11:41:35;;;;;;;22.33;13.35;;;;;;;8.68;100.00;102946.88;5177618;28;20657;-77
2023/02/12 11:44:12;;;;;;;21.98;13.10;;;;;;;8.71;100.00;102947.81;5182635;28;20068;-77
2023/02/12 11:46:48;;;;;;;23.25;13.05;;;;;;;8.66;100.00;102936.47;5185045;28;20410;-77